sensor_id;sensor_type;location;lat;lon;timestamp;temperature;humidity
7218;DHT22;3650;53.580;10.094;2023-08-07T00:01:34;17.40;93.90
7218;DHT22;3650;53.580;10.094;2023-08-07T00:04:01;17.40;93.70
7218;DHT22;3650;53.580;10.094;2023-08-07T00:06:28;17.40;93.70
7218;DHT22;3650;53.580;10.094;2023-08-07T00:08:54;17.40;93.70
7218;DHT22;3650;53.580;10.094;2023-08-07T00:11:23;17.40;93.70
7218;DHT22;3650;53.580;10.094;2023-08-07T00:13:50;17.30;93.40
7218;DHT22;3650;53.580;10.094;2023-08-07T00:16:16;17.30;93.20
7218;DHT22;3650;53.580;10.094;2023-08-07T00:18:43;17.40;93.10
7218;DHT22;3650;53.580;10.094;2023-08-07T00:21:10;17.40;92.90
7218;DHT22;3650;53.580;10.094;2023-08-07T00:23:37;17.30;92.60
7218;DHT22;3650;53.580;10.094;2023-08-07T00:26:04;17.30;92.50
7218;DHT22;3650;53.580;10.094;2023-08-07T00:28:32;17.30;92.40
7218;DHT22;3650;53.580;10.094;2023-08-07T00:30:59;17.30;92.30
7218;DHT22;3650;53.580;10.094;2023-08-07T00:33:25;17.30;92.20
7218;DHT22;3650;53.580;10.094;2023-08-07T00:35:52;17.30;92.00
7218;DHT22;3650;53.580;10.094;2023-08-07T00:38:19;17.20;91.70
7218;DHT22;3650;53.580;10.094;2023-08-07T00:40:46;17.30;91.80
7218;DHT22;3650;53.580;10.094;2023-08-07T00:43:13;17.20;91.70
7218;DHT22;3650;53.580;10.094;2023-08-07T00:45:43;17.20;91.50
7218;DHT22;3650;53.580;10.094;2023-08-07T00:48:12;17.30;91.30
7218;DHT22;3650;53.580;10.094;2023-08-07T00:50:39;17.20;91.30
7218;DHT22;3650;53.580;10.094;2023-08-07T00:53:07;17.20;91.10
7218;DHT22;3650;53.580;10.094;2023-08-07T00:55:34;17.20;91.00
7218;DHT22;3650;53.580;10.094;2023-08-07T00:58:01;17.20;90.90
7218;DHT22;3650;53.580;10.094;2023-08-07T01:00:29;17.20;91.00
7218;DHT22;3650;53.580;10.094;2023-08-07T01:02:57;17.20;91.00
7218;DHT22;3650;53.580;10.094;2023-08-07T01:05:25;17.20;91.00
7218;DHT22;3650;53.580;10.094;2023-08-07T01:07:53;17.20;91.00
7218;DHT22;3650;53.580;10.094;2023-08-07T01:10:25;17.20;90.90
7218;DHT22;3650;53.580;10.094;2023-08-07T01:12:59;17.20;91.00
7218;DHT22;3650;53.580;10.094;2023-08-07T01:15:30;17.20;91.00
7218;DHT22;3650;53.580;10.094;2023-08-07T01:18:00;17.20;91.10
7218;DHT22;3650;53.580;10.094;2023-08-07T01:20:27;17.20;91.10
7218;DHT22;3650;53.580;10.094;2023-08-07T01:22:55;17.20;91.10
7218;DHT22;3650;53.580;10.094;2023-08-07T01:25:22;17.10;91.00
7218;DHT22;3650;53.580;10.094;2023-08-07T01:27:54;17.20;90.80
7218;DHT22;3650;53.580;10.094;2023-08-07T01:30:30;17.10;90.60
7218;DHT22;3650;53.580;10.094;2023-08-07T01:33:04;17.10;90.60
7218;DHT22;3650;53.580;10.094;2023-08-07T01:35:40;17.10;90.70
7218;DHT22;3650;53.580;10.094;2023-08-07T01:38:11;17.10;90.80
7218;DHT22;3650;53.580;10.094;2023-08-07T01:40:39;17.10;90.80
7218;DHT22;3650;53.580;10.094;2023-08-07T01:43:07;17.10;91.10
7218;DHT22;3650;53.580;10.094;2023-08-07T01:45:34;17.10;91.30
7218;DHT22;3650;53.580;10.094;2023-08-07T01:48:01;17.00;91.50
7218;DHT22;3650;53.580;10.094;2023-08-07T01:50:29;17.00;91.70
7218;DHT22;3650;53.580;10.094;2023-08-07T01:52:56;17.00;91.70
7218;DHT22;3650;53.580;10.094;2023-08-07T01:55:24;17.00;91.60
7218;DHT22;3650;53.580;10.094;2023-08-07T01:57:51;17.00;91.60
7218;DHT22;3650;53.580;10.094;2023-08-07T02:00:18;17.00;91.50
7218;DHT22;3650;53.580;10.094;2023-08-07T02:02:45;17.00;91.50
7218;DHT22;3650;53.580;10.094;2023-08-07T02:05:13;17.00;91.60
7218;DHT22;3650;53.580;10.094;2023-08-07T02:07:41;17.00;91.60
7218;DHT22;3650;53.580;10.094;2023-08-07T02:10:08;17.00;91.70
7218;DHT22;3650;53.580;10.094;2023-08-07T02:12:36;17.00;91.90
7218;DHT22;3650;53.580;10.094;2023-08-07T02:15:04;17.00;92.00
7218;DHT22;3650;53.580;10.094;2023-08-07T02:17:31;17.00;92.10
7218;DHT22;3650;53.580;10.094;2023-08-07T02:19:58;17.00;92.10
7218;DHT22;3650;53.580;10.094;2023-08-07T02:22:25;17.00;92.20
7218;DHT22;3650;53.580;10.094;2023-08-07T02:24:51;17.00;92.30
7218;DHT22;3650;53.580;10.094;2023-08-07T02:27:18;17.00;92.30
7218;DHT22;3650;53.580;10.094;2023-08-07T02:29:46;17.00;92.30
7218;DHT22;3650;53.580;10.094;2023-08-07T02:32:13;17.00;92.30
7218;DHT22;3650;53.580;10.094;2023-08-07T02:34:40;17.00;92.30
7218;DHT22;3650;53.580;10.094;2023-08-07T02:37:07;17.00;92.40
7218;DHT22;3650;53.580;10.094;2023-08-07T02:39:33;17.00;92.60
7218;DHT22;3650;53.580;10.094;2023-08-07T02:42:00;17.00;92.80
7218;DHT22;3650;53.580;10.094;2023-08-07T02:44:27;17.00;92.80
7218;DHT22;3650;53.580;10.094;2023-08-07T02:46:55;16.90;92.90
7218;DHT22;3650;53.580;10.094;2023-08-07T02:49:22;17.00;93.00
7218;DHT22;3650;53.580;10.094;2023-08-07T02:51:49;17.00;92.90
7218;DHT22;3650;53.580;10.094;2023-08-07T02:54:15;17.00;92.90
7218;DHT22;3650;53.580;10.094;2023-08-07T02:56:42;16.90;92.80
7218;DHT22;3650;53.580;10.094;2023-08-07T02:59:09;16.90;92.90
7218;DHT22;3650;53.580;10.094;2023-08-07T03:01:36;16.90;92.90
7218;DHT22;3650;53.580;10.094;2023-08-07T03:04:04;16.90;92.90
7218;DHT22;3650;53.580;10.094;2023-08-07T03:06:31;16.90;93.00
7218;DHT22;3650;53.580;10.094;2023-08-07T03:08:57;16.90;92.90
7218;DHT22;3650;53.580;10.094;2023-08-07T03:11:24;16.90;92.90
7218;DHT22;3650;53.580;10.094;2023-08-07T03:13:51;16.90;93.00
7218;DHT22;3650;53.580;10.094;2023-08-07T03:16:18;16.90;93.00
7218;DHT22;3650;53.580;10.094;2023-08-07T03:18:45;16.90;93.10
7218;DHT22;3650;53.580;10.094;2023-08-07T03:21:13;16.90;93.10
7218;DHT22;3650;53.580;10.094;2023-08-07T03:23:40;16.90;93.20
7218;DHT22;3650;53.580;10.094;2023-08-07T03:26:09;16.90;93.40
7218;DHT22;3650;53.580;10.094;2023-08-07T03:28:36;16.80;93.50
7218;DHT22;3650;53.580;10.094;2023-08-07T03:31:03;16.80;93.50
7218;DHT22;3650;53.580;10.094;2023-08-07T03:33:30;16.80;93.50
7218;DHT22;3650;53.580;10.094;2023-08-07T03:35:57;16.90;93.50
7218;DHT22;3650;53.580;10.094;2023-08-07T03:38:25;16.90;93.70
7218;DHT22;3650;53.580;10.094;2023-08-07T03:40:52;16.90;93.90
7218;DHT22;3650;53.580;10.094;2023-08-07T03:43:19;16.80;94.00
7218;DHT22;3650;53.580;10.094;2023-08-07T03:45:45;16.90;94.20
7218;DHT22;3650;53.580;10.094;2023-08-07T03:48:12;16.90;94.30
7218;DHT22;3650;53.580;10.094;2023-08-07T03:50:39;16.90;94.50
7218;DHT22;3650;53.580;10.094;2023-08-07T03:53:06;16.90;94.60
7218;DHT22;3650;53.580;10.094;2023-08-07T03:55:35;16.90;94.60
7218;DHT22;3650;53.580;10.094;2023-08-07T03:58:02;17.00;94.80
7218;DHT22;3650;53.580;10.094;2023-08-07T04:00:29;16.90;94.90
7218;DHT22;3650;53.580;10.094;2023-08-07T04:02:55;16.90;95.10
7218;DHT22;3650;53.580;10.094;2023-08-07T04:05:22;16.90;95.20
7218;DHT22;3650;53.580;10.094;2023-08-07T04:07:49;17.00;95.30
7218;DHT22;3650;53.580;10.094;2023-08-07T04:10:16;17.00;95.40
7218;DHT22;3650;53.580;10.094;2023-08-07T04:12:44;16.90;95.60
7218;DHT22;3650;53.580;10.094;2023-08-07T04:15:11;17.00;95.70
7218;DHT22;3650;53.580;10.094;2023-08-07T04:17:37;17.00;95.80
7218;DHT22;3650;53.580;10.094;2023-08-07T04:20:06;17.00;96.00
7218;DHT22;3650;53.580;10.094;2023-08-07T04:22:34;17.00;96.10
7218;DHT22;3650;53.580;10.094;2023-08-07T04:25:01;17.00;96.20
7218;DHT22;3650;53.580;10.094;2023-08-07T04:27:28;17.00;96.10
7218;DHT22;3650;53.580;10.094;2023-08-07T04:29:56;17.00;96.20
7218;DHT22;3650;53.580;10.094;2023-08-07T04:32:23;17.10;96.40
7218;DHT22;3650;53.580;10.094;2023-08-07T04:34:50;17.00;96.40
7218;DHT22;3650;53.580;10.094;2023-08-07T04:37:16;17.10;96.40
7218;DHT22;3650;53.580;10.094;2023-08-07T04:39:43;17.10;96.40
7218;DHT22;3650;53.580;10.094;2023-08-07T04:42:09;17.00;96.40
7218;DHT22;3650;53.580;10.094;2023-08-07T04:44:36;17.00;96.40
7218;DHT22;3650;53.580;10.094;2023-08-07T04:47:05;17.10;96.60
7218;DHT22;3650;53.580;10.094;2023-08-07T04:49:32;17.10;96.50
7218;DHT22;3650;53.580;10.094;2023-08-07T04:51:59;17.10;96.50
7218;DHT22;3650;53.580;10.094;2023-08-07T04:54:25;17.10;96.60
7218;DHT22;3650;53.580;10.094;2023-08-07T04:56:52;17.10;96.60
7218;DHT22;3650;53.580;10.094;2023-08-07T04:59:19;17.10;96.70
7218;DHT22;3650;53.580;10.094;2023-08-07T05:01:46;17.10;96.70
7218;DHT22;3650;53.580;10.094;2023-08-07T05:04:14;17.10;96.80
7218;DHT22;3650;53.580;10.094;2023-08-07T05:06:41;17.20;97.00
7218;DHT22;3650;53.580;10.094;2023-08-07T05:09:07;17.10;97.00
7218;DHT22;3650;53.580;10.094;2023-08-07T05:11:34;17.20;97.40
7218;DHT22;3650;53.580;10.094;2023-08-07T05:14:01;17.10;97.00
7218;DHT22;3650;53.580;10.094;2023-08-07T05:16:29;17.20;97.10
7218;DHT22;3650;53.580;10.094;2023-08-07T05:18:55;17.20;97.20
7218;DHT22;3650;53.580;10.094;2023-08-07T05:21:24;17.20;97.30
7218;DHT22;3650;53.580;10.094;2023-08-07T05:23:50;17.20;97.40
7218;DHT22;3650;53.580;10.094;2023-08-07T05:26:18;17.30;97.40
7218;DHT22;3650;53.580;10.094;2023-08-07T05:28:45;17.30;97.40
7218;DHT22;3650;53.580;10.094;2023-08-07T05:31:12;17.30;97.30
7218;DHT22;3650;53.580;10.094;2023-08-07T05:33:39;17.30;97.10
7218;DHT22;3650;53.580;10.094;2023-08-07T05:36:06;17.30;97.10
7218;DHT22;3650;53.580;10.094;2023-08-07T05:38:34;17.30;97.00
7218;DHT22;3650;53.580;10.094;2023-08-07T05:41:01;17.30;96.90
7218;DHT22;3650;53.580;10.094;2023-08-07T05:43:28;17.40;97.00
7218;DHT22;3650;53.580;10.094;2023-08-07T05:45:55;17.30;96.90
7218;DHT22;3650;53.580;10.094;2023-08-07T05:48:21;17.40;96.90
7218;DHT22;3650;53.580;10.094;2023-08-07T05:50:48;17.40;96.90
7218;DHT22;3650;53.580;10.094;2023-08-07T05:53:15;17.30;96.80
7218;DHT22;3650;53.580;10.094;2023-08-07T05:55:43;17.40;96.40
7218;DHT22;3650;53.580;10.094;2023-08-07T05:58:10;17.40;96.10
7218;DHT22;3650;53.580;10.094;2023-08-07T06:00:37;17.40;96.20
7218;DHT22;3650;53.580;10.094;2023-08-07T06:03:04;17.40;96.20
7218;DHT22;3650;53.580;10.094;2023-08-07T06:05:31;17.40;96.10
7218;DHT22;3650;53.580;10.094;2023-08-07T06:07:57;17.40;96.00
7218;DHT22;3650;53.580;10.094;2023-08-07T06:10:24;17.40;95.60
7218;DHT22;3650;53.580;10.094;2023-08-07T06:12:53;17.40;95.00
7218;DHT22;3650;53.580;10.094;2023-08-07T06:15:19;17.40;94.30
7218;DHT22;3650;53.580;10.094;2023-08-07T06:17:46;17.40;94.60
7218;DHT22;3650;53.580;10.094;2023-08-07T06:20:13;17.40;94.10
7218;DHT22;3650;53.580;10.094;2023-08-07T06:22:41;17.40;94.20
7218;DHT22;3650;53.580;10.094;2023-08-07T06:25:09;17.40;94.00
7218;DHT22;3650;53.580;10.094;2023-08-07T06:27:35;17.40;93.70
7218;DHT22;3650;53.580;10.094;2023-08-07T06:30:05;17.40;94.10
7218;DHT22;3650;53.580;10.094;2023-08-07T06:32:32;17.40;94.30
7218;DHT22;3650;53.580;10.094;2023-08-07T06:34:59;17.40;94.30
7218;DHT22;3650;53.580;10.094;2023-08-07T06:37:25;17.40;94.20
7218;DHT22;3650;53.580;10.094;2023-08-07T06:39:52;17.40;94.00
7218;DHT22;3650;53.580;10.094;2023-08-07T06:42:19;17.40;93.70
7218;DHT22;3650;53.580;10.094;2023-08-07T06:44:46;17.50;93.20
7218;DHT22;3650;53.580;10.094;2023-08-07T06:47:15;17.40;92.70
7218;DHT22;3650;53.580;10.094;2023-08-07T06:49:41;17.40;92.70
7218;DHT22;3650;53.580;10.094;2023-08-07T06:52:08;17.50;92.30
7218;DHT22;3650;53.580;10.094;2023-08-07T06:54:35;17.40;91.80
7218;DHT22;3650;53.580;10.094;2023-08-07T06:57:02;17.40;92.20
7218;DHT22;3650;53.580;10.094;2023-08-07T06:59:28;17.50;92.90
7218;DHT22;3650;53.580;10.094;2023-08-07T07:01:55;17.40;92.80
7218;DHT22;3650;53.580;10.094;2023-08-07T07:04:23;17.50;92.80
7218;DHT22;3650;53.580;10.094;2023-08-07T07:06:50;17.40;91.90
7218;DHT22;3650;53.580;10.094;2023-08-07T07:09:17;17.40;91.70
7218;DHT22;3650;53.580;10.094;2023-08-07T07:11:44;17.40;91.60
7218;DHT22;3650;53.580;10.094;2023-08-07T07:14:10;17.40;91.80
7218;DHT22;3650;53.580;10.094;2023-08-07T07:16:38;17.40;91.60
7218;DHT22;3650;53.580;10.094;2023-08-07T07:19:04;17.40;90.80
7218;DHT22;3650;53.580;10.094;2023-08-07T07:21:34;17.40;90.50
7218;DHT22;3650;53.580;10.094;2023-08-07T07:24:01;17.50;88.00
7218;DHT22;3650;53.580;10.094;2023-08-07T07:26:28;17.40;88.10
7218;DHT22;3650;53.580;10.094;2023-08-07T07:28:55;17.40;88.70
7218;DHT22;3650;53.580;10.094;2023-08-07T07:31:22;17.40;87.30
7218;DHT22;3650;53.580;10.094;2023-08-07T07:33:48;17.40;86.30
7218;DHT22;3650;53.580;10.094;2023-08-07T07:36:16;17.50;86.00
7218;DHT22;3650;53.580;10.094;2023-08-07T07:38:45;17.50;82.00
7218;DHT22;3650;53.580;10.094;2023-08-07T07:41:13;17.40;81.40
7218;DHT22;3650;53.580;10.094;2023-08-07T07:43:40;17.40;84.30
7218;DHT22;3650;53.580;10.094;2023-08-07T07:46:06;17.30;86.50
7218;DHT22;3650;53.580;10.094;2023-08-07T07:48:33;17.20;87.20
7218;DHT22;3650;53.580;10.094;2023-08-07T07:51:01;17.20;86.80
7218;DHT22;3650;53.580;10.094;2023-08-07T07:53:27;17.20;86.30
7218;DHT22;3650;53.580;10.094;2023-08-07T07:55:56;17.20;86.50
7218;DHT22;3650;53.580;10.094;2023-08-07T07:58:23;17.20;88.50
7218;DHT22;3650;53.580;10.094;2023-08-07T08:00:50;17.20;86.90
7218;DHT22;3650;53.580;10.094;2023-08-07T08:03:19;17.20;86.80
7218;DHT22;3650;53.580;10.094;2023-08-07T08:05:48;17.30;86.70
7218;DHT22;3650;53.580;10.094;2023-08-07T08:08:15;17.30;86.70
7218;DHT22;3650;53.580;10.094;2023-08-07T08:10:42;17.30;87.30
7218;DHT22;3650;53.580;10.094;2023-08-07T08:13:11;17.40;86.60
7218;DHT22;3650;53.580;10.094;2023-08-07T08:15:38;17.40;84.40
7218;DHT22;3650;53.580;10.094;2023-08-07T08:18:04;17.40;84.20
7218;DHT22;3650;53.580;10.094;2023-08-07T08:20:31;17.50;82.60
7218;DHT22;3650;53.580;10.094;2023-08-07T08:22:58;17.40;80.90
7218;DHT22;3650;53.580;10.094;2023-08-07T08:25:25;17.50;81.80
7218;DHT22;3650;53.580;10.094;2023-08-07T08:27:52;17.50;83.50
7218;DHT22;3650;53.580;10.094;2023-08-07T08:30:21;17.50;81.90
7218;DHT22;3650;53.580;10.094;2023-08-07T08:32:48;17.40;81.70
7218;DHT22;3650;53.580;10.094;2023-08-07T08:35:14;17.40;80.90
7218;DHT22;3650;53.580;10.094;2023-08-07T08:37:41;17.40;81.80
7218;DHT22;3650;53.580;10.094;2023-08-07T08:40:09;17.40;81.00
7218;DHT22;3650;53.580;10.094;2023-08-07T08:42:39;17.40;82.70
7218;DHT22;3650;53.580;10.094;2023-08-07T08:45:09;17.40;84.80
7218;DHT22;3650;53.580;10.094;2023-08-07T08:47:38;17.40;85.90
7218;DHT22;3650;53.580;10.094;2023-08-07T08:50:07;17.40;88.50
7218;DHT22;3650;53.580;10.094;2023-08-07T08:52:36;17.40;88.30
7218;DHT22;3650;53.580;10.094;2023-08-07T08:55:04;17.40;89.30
7218;DHT22;3650;53.580;10.094;2023-08-07T08:57:33;17.30;90.10
7218;DHT22;3650;53.580;10.094;2023-08-07T09:00:00;17.40;90.40
7218;DHT22;3650;53.580;10.094;2023-08-07T09:02:30;17.30;91.10
7218;DHT22;3650;53.580;10.094;2023-08-07T09:04:59;17.30;90.50
7218;DHT22;3650;53.580;10.094;2023-08-07T09:07:26;17.30;90.40
7218;DHT22;3650;53.580;10.094;2023-08-07T09:09:53;17.30;90.10
7218;DHT22;3650;53.580;10.094;2023-08-07T09:12:26;17.30;87.20
7218;DHT22;3650;53.580;10.094;2023-08-07T09:14:56;17.30;84.00
7218;DHT22;3650;53.580;10.094;2023-08-07T09:17:26;17.30;83.70
7218;DHT22;3650;53.580;10.094;2023-08-07T09:19:53;17.30;84.10
7218;DHT22;3650;53.580;10.094;2023-08-07T09:22:22;17.30;83.20
7218;DHT22;3650;53.580;10.094;2023-08-07T09:24:48;17.30;82.80
7218;DHT22;3650;53.580;10.094;2023-08-07T09:27:16;17.40;82.30
7218;DHT22;3650;53.580;10.094;2023-08-07T09:29:44;17.40;81.30
7218;DHT22;3650;53.580;10.094;2023-08-07T09:32:12;17.40;77.10
7218;DHT22;3650;53.580;10.094;2023-08-07T09:34:39;17.40;74.80
7218;DHT22;3650;53.580;10.094;2023-08-07T09:37:07;17.40;67.20
7218;DHT22;3650;53.580;10.094;2023-08-07T09:39:35;17.50;66.90
7218;DHT22;3650;53.580;10.094;2023-08-07T09:42:02;17.50;67.40
7218;DHT22;3650;53.580;10.094;2023-08-07T09:44:35;17.60;65.10
7218;DHT22;3650;53.580;10.094;2023-08-07T09:47:11;17.60;64.30
7218;DHT22;3650;53.580;10.094;2023-08-07T09:49:39;17.60;61.60
7218;DHT22;3650;53.580;10.094;2023-08-07T09:52:07;17.60;59.60
7218;DHT22;3650;53.580;10.094;2023-08-07T09:54:36;17.70;58.90
7218;DHT22;3650;53.580;10.094;2023-08-07T09:57:03;17.70;56.30
7218;DHT22;3650;53.580;10.094;2023-08-07T09:59:32;17.70;55.70
7218;DHT22;3650;53.580;10.094;2023-08-07T10:02:00;17.70;55.50
7218;DHT22;3650;53.580;10.094;2023-08-07T10:04:28;17.70;54.20
7218;DHT22;3650;53.580;10.094;2023-08-07T10:06:55;17.80;54.50
7218;DHT22;3650;53.580;10.094;2023-08-07T10:09:22;17.80;52.20
7218;DHT22;3650;53.580;10.094;2023-08-07T10:11:51;17.90;49.80
7218;DHT22;3650;53.580;10.094;2023-08-07T10:14:18;17.90;51.10
7218;DHT22;3650;53.580;10.094;2023-08-07T10:16:46;18.00;50.30
7218;DHT22;3650;53.580;10.094;2023-08-07T10:19:13;18.00;51.30
7218;DHT22;3650;53.580;10.094;2023-08-07T10:21:40;18.10;52.50
7218;DHT22;3650;53.580;10.094;2023-08-07T10:24:08;18.10;51.50
7218;DHT22;3650;53.580;10.094;2023-08-07T10:26:41;18.20;50.70
7218;DHT22;3650;53.580;10.094;2023-08-07T10:29:11;18.20;48.90
7218;DHT22;3650;53.580;10.094;2023-08-07T10:31:40;18.20;48.10
7218;DHT22;3650;53.580;10.094;2023-08-07T10:34:07;18.30;46.90
7218;DHT22;3650;53.580;10.094;2023-08-07T10:36:35;18.30;46.90
7218;DHT22;3650;53.580;10.094;2023-08-07T10:39:08;18.40;46.90
7218;DHT22;3650;53.580;10.094;2023-08-07T10:41:42;18.40;46.80
7218;DHT22;3650;53.580;10.094;2023-08-07T10:44:20;18.40;46.70
7218;DHT22;3650;53.580;10.094;2023-08-07T10:46:47;18.40;46.80
7218;DHT22;3650;53.580;10.094;2023-08-07T10:49:30;18.40;47.20
7218;DHT22;3650;53.580;10.094;2023-08-07T10:51:58;18.40;47.90
7218;DHT22;3650;53.580;10.094;2023-08-07T10:54:25;18.40;47.10
7218;DHT22;3650;53.580;10.094;2023-08-07T10:56:53;18.40;45.80
7218;DHT22;3650;53.580;10.094;2023-08-07T10:59:22;18.40;44.70
7218;DHT22;3650;53.580;10.094;2023-08-07T11:01:54;18.40;45.50
7218;DHT22;3650;53.580;10.094;2023-08-07T11:04:22;18.40;44.20
7218;DHT22;3650;53.580;10.094;2023-08-07T11:06:51;18.40;45.30
7218;DHT22;3650;53.580;10.094;2023-08-07T11:09:18;18.40;45.70
7218;DHT22;3650;53.580;10.094;2023-08-07T11:11:46;18.40;47.20
7218;DHT22;3650;53.580;10.094;2023-08-07T11:14:15;18.40;44.80
7218;DHT22;3650;53.580;10.094;2023-08-07T11:16:45;18.40;44.00
7218;DHT22;3650;53.580;10.094;2023-08-07T11:19:12;18.40;46.90
7218;DHT22;3650;53.580;10.094;2023-08-07T11:21:40;18.40;44.80
7218;DHT22;3650;53.580;10.094;2023-08-07T11:24:08;18.40;44.00
7218;DHT22;3650;53.580;10.094;2023-08-07T11:26:35;18.40;45.90
7218;DHT22;3650;53.580;10.094;2023-08-07T11:29:02;18.40;50.80
7218;DHT22;3650;53.580;10.094;2023-08-07T11:31:28;18.40;51.30
7218;DHT22;3650;53.580;10.094;2023-08-07T11:33:57;18.30;50.90
7218;DHT22;3650;53.580;10.094;2023-08-07T11:36:25;18.30;51.00
7218;DHT22;3650;53.580;10.094;2023-08-07T11:38:52;18.30;52.30
7218;DHT22;3650;53.580;10.094;2023-08-07T11:41:19;18.20;52.60
7218;DHT22;3650;53.580;10.094;2023-08-07T11:43:47;18.20;52.70
7218;DHT22;3650;53.580;10.094;2023-08-07T11:46:15;18.30;54.20
7218;DHT22;3650;53.580;10.094;2023-08-07T11:48:43;18.30;54.50
7218;DHT22;3650;53.580;10.094;2023-08-07T11:51:12;18.30;56.10
7218;DHT22;3650;53.580;10.094;2023-08-07T11:53:40;18.40;55.10
7218;DHT22;3650;53.580;10.094;2023-08-07T11:56:09;18.40;52.70
7218;DHT22;3650;53.580;10.094;2023-08-07T11:58:37;18.40;51.30
7218;DHT22;3650;53.580;10.094;2023-08-07T12:01:04;18.40;47.10
7218;DHT22;3650;53.580;10.094;2023-08-07T12:03:33;18.40;45.70
7218;DHT22;3650;53.580;10.094;2023-08-07T12:06:04;18.40;45.00
7218;DHT22;3650;53.580;10.094;2023-08-07T12:08:34;18.40;43.50
7218;DHT22;3650;53.580;10.094;2023-08-07T12:11:02;18.40;43.20
7218;DHT22;3650;53.580;10.094;2023-08-07T12:13:29;18.40;44.00
7218;DHT22;3650;53.580;10.094;2023-08-07T12:15:57;18.30;45.30
7218;DHT22;3650;53.580;10.094;2023-08-07T12:18:26;18.30;49.90
7218;DHT22;3650;53.580;10.094;2023-08-07T12:20:57;18.20;53.50
7218;DHT22;3650;53.580;10.094;2023-08-07T12:23:24;18.10;54.40
7218;DHT22;3650;53.580;10.094;2023-08-07T12:25:52;18.00;55.10
7218;DHT22;3650;53.580;10.094;2023-08-07T12:28:19;18.00;56.60
7218;DHT22;3650;53.580;10.094;2023-08-07T12:30:47;18.00;55.40
7218;DHT22;3650;53.580;10.094;2023-08-07T12:33:14;17.90;54.70
7218;DHT22;3650;53.580;10.094;2023-08-07T12:35:41;17.90;53.80
7218;DHT22;3650;53.580;10.094;2023-08-07T12:38:08;17.90;54.70
7218;DHT22;3650;53.580;10.094;2023-08-07T12:40:36;18.00;55.30
7218;DHT22;3650;53.580;10.094;2023-08-07T12:43:04;18.00;55.70
7218;DHT22;3650;53.580;10.094;2023-08-07T12:45:32;18.00;54.40
7218;DHT22;3650;53.580;10.094;2023-08-07T12:47:59;18.00;56.80
7218;DHT22;3650;53.580;10.094;2023-08-07T12:50:27;17.90;60.50
7218;DHT22;3650;53.580;10.094;2023-08-07T12:52:54;17.90;64.70
7218;DHT22;3650;53.580;10.094;2023-08-07T12:55:21;17.90;63.50
7218;DHT22;3650;53.580;10.094;2023-08-07T12:57:48;17.90;62.60
7218;DHT22;3650;53.580;10.094;2023-08-07T13:00:17;17.90;62.50
7218;DHT22;3650;53.580;10.094;2023-08-07T13:02:45;17.90;62.00
7218;DHT22;3650;53.580;10.094;2023-08-07T13:05:12;17.90;59.80
7218;DHT22;3650;53.580;10.094;2023-08-07T13:07:40;17.90;57.60
7218;DHT22;3650;53.580;10.094;2023-08-07T13:10:09;17.90;56.50
7218;DHT22;3650;53.580;10.094;2023-08-07T13:12:38;17.80;58.40
7218;DHT22;3650;53.580;10.094;2023-08-07T13:15:07;17.90;59.20
7218;DHT22;3650;53.580;10.094;2023-08-07T13:17:36;17.80;56.40
7218;DHT22;3650;53.580;10.094;2023-08-07T13:20:04;17.80;56.00
7218;DHT22;3650;53.580;10.094;2023-08-07T13:22:33;17.90;55.00
7218;DHT22;3650;53.580;10.094;2023-08-07T13:25:00;17.90;54.40
7218;DHT22;3650;53.580;10.094;2023-08-07T13:27:28;18.00;55.10
7218;DHT22;3650;53.580;10.094;2023-08-07T13:29:55;18.00;52.80
7218;DHT22;3650;53.580;10.094;2023-08-07T13:32:22;18.10;53.10
7218;DHT22;3650;53.580;10.094;2023-08-07T13:34:50;18.20;53.60
7218;DHT22;3650;53.580;10.094;2023-08-07T13:37:17;18.20;53.20
7218;DHT22;3650;53.580;10.094;2023-08-07T13:39:44;18.30;54.80
7218;DHT22;3650;53.580;10.094;2023-08-07T13:42:13;18.40;54.10
7218;DHT22;3650;53.580;10.094;2023-08-07T13:44:40;18.50;53.40
7218;DHT22;3650;53.580;10.094;2023-08-07T13:47:07;18.60;53.40
7218;DHT22;3650;53.580;10.094;2023-08-07T13:49:35;18.60;51.60
7218;DHT22;3650;53.580;10.094;2023-08-07T13:52:04;18.70;51.90
7218;DHT22;3650;53.580;10.094;2023-08-07T13:54:31;18.70;50.60
7218;DHT22;3650;53.580;10.094;2023-08-07T13:56:58;18.70;46.70
7218;DHT22;3650;53.580;10.094;2023-08-07T13:59:25;18.70;46.50
7218;DHT22;3650;53.580;10.094;2023-08-07T14:01:52;18.70;45.80
7218;DHT22;3650;53.580;10.094;2023-08-07T14:04:20;18.70;46.90
7218;DHT22;3650;53.580;10.094;2023-08-07T14:06:47;18.70;44.20
7218;DHT22;3650;53.580;10.094;2023-08-07T14:09:15;18.60;44.00
7218;DHT22;3650;53.580;10.094;2023-08-07T14:11:44;18.60;43.60
7218;DHT22;3650;53.580;10.094;2023-08-07T14:14:10;18.50;43.70
7218;DHT22;3650;53.580;10.094;2023-08-07T14:16:37;18.50;44.10
7218;DHT22;3650;53.580;10.094;2023-08-07T14:19:04;18.40;43.30
7218;DHT22;3650;53.580;10.094;2023-08-07T14:21:31;18.40;44.00
7218;DHT22;3650;53.580;10.094;2023-08-07T14:23:58;18.40;43.70
7218;DHT22;3650;53.580;10.094;2023-08-07T14:26:26;18.40;44.00
7218;DHT22;3650;53.580;10.094;2023-08-07T14:28:53;18.50;42.30
7218;DHT22;3650;53.580;10.094;2023-08-07T14:31:20;18.50;41.50
7218;DHT22;3650;53.580;10.094;2023-08-07T14:33:46;18.30;41.30
7218;DHT22;3650;53.580;10.094;2023-08-07T14:36:13;18.40;40.40
7218;DHT22;3650;53.580;10.094;2023-08-07T14:38:41;18.40;39.80
7218;DHT22;3650;53.580;10.094;2023-08-07T14:41:07;18.30;39.10
7218;DHT22;3650;53.580;10.094;2023-08-07T14:43:35;18.30;39.90
7218;DHT22;3650;53.580;10.094;2023-08-07T14:46:02;18.40;40.70
7218;DHT22;3650;53.580;10.094;2023-08-07T14:48:29;18.40;42.70
7218;DHT22;3650;53.580;10.094;2023-08-07T14:50:56;18.40;42.60
7218;DHT22;3650;53.580;10.094;2023-08-07T14:53:23;18.50;44.00
7218;DHT22;3650;53.580;10.094;2023-08-07T14:55:51;18.60;42.40
7218;DHT22;3650;53.580;10.094;2023-08-07T14:58:18;18.60;42.20
7218;DHT22;3650;53.580;10.094;2023-08-07T15:00:46;18.60;44.00
7218;DHT22;3650;53.580;10.094;2023-08-07T15:03:14;18.60;44.10
7218;DHT22;3650;53.580;10.094;2023-08-07T15:05:42;18.60;46.10
7218;DHT22;3650;53.580;10.094;2023-08-07T15:08:08;18.50;51.60
7218;DHT22;3650;53.580;10.094;2023-08-07T15:10:35;18.40;55.60
7218;DHT22;3650;53.580;10.094;2023-08-07T15:13:05;18.30;59.90
7218;DHT22;3650;53.580;10.094;2023-08-07T15:15:32;18.20;62.20
7218;DHT22;3650;53.580;10.094;2023-08-07T15:18:00;18.10;63.80
7218;DHT22;3650;53.580;10.094;2023-08-07T15:20:28;18.00;66.20
7218;DHT22;3650;53.580;10.094;2023-08-07T15:22:56;17.90;68.70
7218;DHT22;3650;53.580;10.094;2023-08-07T15:25:23;17.80;71.10
7218;DHT22;3650;53.580;10.094;2023-08-07T15:27:50;17.70;70.20
7218;DHT22;3650;53.580;10.094;2023-08-07T15:30:17;17.60;71.10
7218;DHT22;3650;53.580;10.094;2023-08-07T15:32:44;17.50;71.50
7218;DHT22;3650;53.580;10.094;2023-08-07T15:35:12;17.50;71.10
7218;DHT22;3650;53.580;10.094;2023-08-07T15:37:39;17.50;73.20
7218;DHT22;3650;53.580;10.094;2023-08-07T15:40:08;17.40;72.70
7218;DHT22;3650;53.580;10.094;2023-08-07T15:42:35;17.40;73.10
7218;DHT22;3650;53.580;10.094;2023-08-07T15:45:02;17.40;73.80
7218;DHT22;3650;53.580;10.094;2023-08-07T15:47:30;17.30;73.00